x

Tanner Bank - 121nm West Of San Diego, Ca (46047) Wave Buoy

10:50am - Tue 24th Jan 2017 All times are PST. -8 hours from GMT.

  • Sig Wave height 14.4ft
  • Swell Direction
  • Peak Period 14s
  • Average Period 10s
  • Wind
    13mph, 20mph gusts
  • Sea Temp 58°f
  • 空気 Temp 55°f
  • Sea Pressure 1017.9mb
  • Tanner Bank - 121nm West Of San Diego, Ca
  • Tanner Bank - 121nm West Of San Diego, Ca

More Historic Weather Station data

Upgrade to MSW Pro to gain access to the past 30 days of data for over 8000 Wavebouys and Weather Stations around the globe.

Join Pro

Comparision Forecast

View Surf forecast
   
Tue 01/24 10:50am 14.5ft 14s 10s 13 20 mph 1017.9mb 58f 55f
9:50am 17ft 15s 10s 13 18 mph 1017.7mb 58f 54f
8:50am 15.5ft 14s 10s 16 20 mph 1016.9mb 58f 54f
7:50am 15.5ft 15s 10s 11 18 mph 1016.3mb 58f 53f
6:50am 15.5ft 14s 10s 11 16 mph 1016mb 58f 52f
5:50am 16.5ft 15s 10s 11 16 mph 1016mb 58f 51f
4:50am 15ft 15s 10s 25 36 mph 1015.3mb 58f 53f
3:50am 15.5ft 14s 10s 25 29 mph 1014.8mb 58f 54f
2:50am 16ft 15s 10s 18 25 mph 1015mb 58f 55f
1:50am 15.5ft 15s 10s 20 25 mph 1014.9mb 58f 55f
12:50am 14.5ft 14s 9s 18 25 mph 1015mb 58f 55f
Mon 01/23 11:50pm 16ft 15s 10s 18 22 mph 1015.2mb 58f 55f
10:50pm 15ft 14s 10s 20 25 mph 1015.1mb 58f 54f
9:50pm 15ft 15s 10s 18 25 mph 1014.7mb 58f 54f
8:50pm 15ft 16s 10s 20 27 mph 1014.5mb 58f 54f
7:50pm 15.5ft 15s 9s 20 25 mph 1013.8mb 58f 55f
6:50pm 14ft 14s 9s 20 27 mph 1013.3mb 58f 55f
5:50pm 15ft 14s 9s 22 29 mph 1013.1mb 58f 55f
4:50pm 15.5ft 15s 9s 20 27 mph 1013.2mb 58f 54f
3:50pm 14.5ft 15s 9s 20 22 mph 1013.1mb 58f 53f
2:50pm 14.5ft 14s 8s 25 29 mph 1012.6mb 58f 55f
1:50pm 15ft 12s 9s 25 31 mph 1012.3mb 57f 54f
12:50pm 15.5ft 12s 9s 18 22 mph 1012.7mb 57f 55f
11:50am 15ft 13s 8s 20 31 mph 1014mb 58f 53f
10:50am 15ft 12s 8s 25 29 mph 1014.2mb 58f 56f
9:50am 15ft 12s 8s 27 34 mph 1014mb 58f 57f
8:50am 15.5ft 14s 9s 25 29 mph 1013.5mb 58f 57f
7:50am 15ft 14s 9s 25 31 mph 1013mb 58f 57f
6:50am 14.5ft 14s 9s 20 25 mph 1013.2mb 58f 56f
5:50am 14ft 15s 9s 20 25 mph 1013.1mb 58f 55f
4:50am 14ft 15s 9s 25 29 mph 1012.7mb 58f 58f
3:50am 12.5ft 15s 8s 22 27 mph 1013.1mb 58f 58f
2:50am 13ft 14s 8s 22 29 mph 1013.4mb 58f 58f
1:50am 12ft 14s 8s 22 27 mph 1013.8mb 58f 58f
12:50am 12.5ft 14s 8s 22 27 mph 1013.8mb 58f 58f
Sun 01/22 11:50pm 11ft 15s 8s 22 29 mph 1014.2mb 58f 59f
10:50pm 12.5ft 16s 8s 18 25 mph 1014.4mb 58f 58f
9:50pm 13ft 16s 9s 25 31 mph 1013.9mb 58f 59f
8:50pm 13ft 16s 9s 18 22 mph 1013.7mb 58f 59f
7:50pm 13.5ft 16s 9s 13 18 mph 1014mb 58f 58f
6:50pm 14ft 15s 9s 13 18 mph 1013.7mb 58f 58f
5:50pm 15ft 16s 9s 13 18 mph 1013.4mb 58f 58f
4:50pm 16ft 16s 9s 9 13 mph 1012.7mb 58f 57f
3:50pm 16.5ft 16s 9s 13 18 mph 1012.3mb 58f 56f
2:50pm 17.5ft 15s 9s 27 31 mph 1011.6mb 58f 60f
1:50pm 15ft 16s 9s 27 34 mph 1011.8mb 58f 59f
12:50pm 15ft 16s 8s 27 34 mph 1012.8mb 58f 60f
11:50am 14.5ft 16s 9s 29 36 mph 1013.9mb 58f 61f
10:50am 16ft 16s 9s 27 34 mph 1015.3mb 58f 60f
9:50am 14.5ft 15s 9s 25 34 mph 1015.8mb 58f 60f
8:50am 15.5ft 16s 10s 25 29 mph 1015.8mb 58f 60f
7:50am 15.5ft 16s 10s 22 27 mph 1015.6mb 58f 59f
6:50am 17.5ft 16s 11s 20 27 mph 1015.8mb 58f 59f
5:50am 18.5ft 17s 12s 18 22 mph 1015.9mb 58f 59f
4:50am 19.5ft 17s 12s 18 22 mph 1016.3mb 58f 59f
3:50am 18.5ft 17s 12s 18 22 mph 1016.5mb 58f 58f
2:50am 18ft 17s 12s 18 22 mph 1016.9mb 58f 58f
1:50am 18ft 17s 12s 18 25 mph 1017.3mb 58f 58f
12:50am 20.5ft 19s 13s 16 22 mph 1017.6mb 58f 58f
Sat 01/21 11:50pm 19.5ft 19s 13s 13 18 mph 1018.3mb 58f 58f
10:50pm 21ft 19s 13s 11 18 mph 1018.9mb 58f 58f
9:50pm 20.5ft 19s 12s 11 16 mph 1018.2mb 58f 58f
8:50pm 20.5ft 19s 13s 7 11 mph 1018.3mb 58f 58f
7:50pm 20ft 17s 12s 7 11 mph 1018mb 58f 58f
6:50pm 24.5ft 19s 13s 9 13 mph 1017.8mb 58f 57f
5:50pm 23.5ft 17s 13s 9 13 mph 1017mb 58f 57f
4:50pm 24ft 17s 13s 7 11 mph 1016.3mb 58f 58f
3:50pm 21ft 17s 12s 9 16 mph 1016.3mb 58f 58f
2:50pm 23ft 17s 12s 4 11 mph 1016.3mb 58f 57f
1:50pm 22.5ft 17s 13s 7 13 mph 1016mb 58f 57f
12:50pm 19ft 15s 11s 11 16 mph 1016mb 58f 57f
11:50am 20.5ft 16s 11s 11 18 mph 1016.3mb 58f 57f
10:50am 17.5ft 16s 10s 16 18 mph 1016.1mb 58f 57f
9:50am 17.5ft 15s 10s 16 22 mph 1015.2mb 58f 57f
8:50am 17.5ft 14s 10s 16 22 mph 1013.6mb 58f 57f
7:50am 17.5ft 14s 10s 18 25 mph 1012.5mb 58f 57f
6:50am 16.5ft 16s 10s 22 27 mph 1011.3mb 58f 57f
5:50am 17.5ft 16s 10s 20 25 mph 1009.9mb 58f 56f
4:50am 16.5ft 16s 9s 25 31 mph 1008.4mb 58f 57f
3:50am 14.5ft 15s 8s 27 34 mph 1007.7mb 58f 57f
2:50am 15.5ft 11s 9s 27 31 mph 1006.9mb 58f 57f
1:50am 15.5ft 13s 9s 25 29 mph 1006mb 58f 57f
12:50am 15.5ft 13s 9s 27 31 mph 1005.5mb 59f 58f
Fri 01/20 11:50pm 15.5ft 12s 9s 22 29 mph 1005.5mb 59f 56f
10:50pm 15.5ft 12s 9s 27 36 mph 1005.3mb 59f 56f
9:50pm 16ft 15s 9s 25 31 mph 1004.3mb 58f 58f
8:50pm 16.5ft 14s 9s 27 34 mph 1003.5mb 58f 58f
7:50pm 16ft 15s 9s 27 31 mph 1003.2mb 59f 57f